Time;durP1;ratioP1;P1;durP2;ratioP2;P2;SDS_P1;SDS_P2;PMS_P1;PMS_P2;Temp;Humidity;BMP_temperature;BMP_pressure;BME280_temperature;BME280_humidity;BME280_pressure;Samples;Min_cycle;Max_cycle;Signal;HPM_P1;HPM_P2
2021/07/31 00:01:10;;;;;;;10.98;4.68;;;17.00;77.40;;;;;;5102999;28;20118;-76
2021/07/31 00:03:36;;;;;;;6.78;3.10;;;16.90;77.50;;;;;;5102077;28;20024;-78
2021/07/31 00:06:02;;;;;;;8.45;3.30;;;16.90;78.10;;;;;;5095982;28;20096;-75
2021/07/31 00:08:28;;;;;;;9.40;3.42;;;16.90;78.00;;;;;;5092758;28;20020;-77
2021/07/31 00:10:54;;;;;;;13.68;3.88;;;16.90;78.10;;;;;;5093992;28;20036;-76
2021/07/31 00:13:20;;;;;;;7.57;3.17;;;16.80;78.40;;;;;;5093429;28;20020;-75
2021/07/31 00:15:46;;;;;;;7.68;3.35;;;16.80;78.60;;;;;;5097068;28;20028;-76
2021/07/31 00:18:12;;;;;;;8.25;3.17;;;16.80;78.70;;;;;;5099119;28;20388;-77
2021/07/31 00:20:38;;;;;;;9.60;3.60;;;16.80;79.00;;;;;;5095682;28;20050;-75
2021/07/31 00:23:04;;;;;;;9.65;3.08;;;16.80;79.00;;;;;;5092468;28;20058;-76
2021/07/31 00:25:30;;;;;;;15.07;3.92;;;16.80;79.20;;;;;;5092530;28;20054;-77
2021/07/31 00:27:56;;;;;;;10.82;3.28;;;16.90;79.30;;;;;;5092353;28;20045;-78
2021/07/31 00:30:24;;;;;;;10.55;4.00;;;16.90;79.20;;;;;;5092504;28;20016;-76
2021/07/31 00:32:50;;;;;;;10.93;2.88;;;16.90;79.30;;;;;;5091995;28;20114;-76
2021/07/31 00:35:16;;;;;;;7.35;2.95;;;16.90;79.20;;;;;;5092438;28;20016;-77
2021/07/31 00:37:42;;;;;;;7.90;3.65;;;16.90;79.30;;;;;;5091972;28;20383;-77
2021/07/31 00:40:08;;;;;;;10.73;3.47;;;16.90;79.50;;;;;;5092269;28;20027;-77
2021/07/31 00:42:36;;;;;;;10.55;3.60;;;16.90;79.60;;;;;;5092352;28;20118;-77
2021/07/31 00:45:02;;;;;;;13.05;3.40;;;16.90;79.50;;;;;;5092108;28;20028;-77
2021/07/31 00:47:27;;;;;;;12.20;3.10;;;17.00;79.40;;;;;;5092569;28;20057;-77
2021/07/31 00:49:53;;;;;;;11.05;3.88;;;17.00;79.70;;;;;;5092287;28;20107;-77
2021/07/31 00:52:19;;;;;;;10.32;3.70;;;17.00;79.70;;;;;;5092395;28;20038;-77
2021/07/31 00:54:45;;;;;;;11.85;3.97;;;17.00;79.80;;;;;;5092706;28;20024;-78
2021/07/31 00:57:11;;;;;;;8.10;2.85;;;17.00;80.20;;;;;;5094087;28;20016;-77
2021/07/31 00:59:37;;;;;;;9.80;3.78;;;17.00;79.60;;;;;;5100050;28;20032;-77
2021/07/31 01:02:02;;;;;;;11.50;3.70;;;17.00;80.10;;;;;;5096207;28;20437;-76
2021/07/31 01:04:28;;;;;;;8.32;3.40;;;17.00;80.60;;;;;;5099740;28;20020;-79
2021/07/31 01:06:54;;;;;;;12.48;3.70;;;16.90;80.90;;;;;;5091640;28;20127;-78
2021/07/31 01:09:19;;;;;;;15.80;3.85;;;16.90;81.40;;;;;;5091615;28;20386;-78
2021/07/31 01:11:45;;;;;;;16.00;4.40;;;16.80;80.90;;;;;;5091240;28;20078;-76
2021/07/31 01:14:11;;;;;;;13.32;4.13;;;16.90;80.90;;;;;;5091459;28;20020;-78
2021/07/31 01:16:37;;;;;;;10.38;4.22;;;16.90;81.20;;;;;;5092497;28;20048;-76
2021/07/31 01:19:03;;;;;;;13.88;3.35;;;16.90;81.60;;;;;;5092323;28;20389;-77
2021/07/31 01:21:37;;;;;;;12.82;3.65;;;16.90;81.60;;;;;;5091486;28;20104;-76
2021/07/31 01:24:04;;;;;;;13.50;3.97;;;16.90;81.80;;;;;;5091191;28;20024;-77
2021/07/31 01:26:33;;;;;;;8.68;4.10;;;16.90;82.30;;;;;;5091463;28;20028;-77
2021/07/31 01:28:58;;;;;;;8.50;3.53;;;16.80;81.80;;;;;;5091199;28;20372;-76
2021/07/31 01:31:24;;;;;;;12.73;3.92;;;16.90;81.90;;;;;;5092100;28;20036;-75
2021/07/31 01:33:49;;;;;;;13.13;4.18;;;16.80;81.50;;;;;;5091083;28;20024;-76
2021/07/31 01:36:15;;;;;;;14.45;4.30;;;16.80;83.30;;;;;;5091255;28;20058;-77
2021/07/31 01:38:43;;;;;;;9.98;4.35;;;16.80;83.00;;;;;;5091584;28;20452;-77
2021/07/31 01:41:09;;;;;;;13.93;5.07;;;16.80;82.60;;;;;;5091191;28;20028;-76
2021/07/31 01:43:35;;;;;;;14.20;4.63;;;16.80;83.40;;;;;;5091179;28;20024;-78
2021/07/31 01:46:00;;;;;;;12.57;5.53;;;16.70;83.30;;;;;;5092906;28;20032;-76
2021/07/31 01:48:26;;;;;;;16.75;5.13;;;16.70;83.80;;;;;;5102440;28;20032;-76
2021/07/31 01:50:51;;;;;;;14.27;4.78;;;16.70;84.70;;;;;;5106070;28;20036;-76
2021/07/31 01:53:17;;;;;;;15.13;5.53;;;16.60;85.10;;;;;;5099703;28;20032;-75
2021/07/31 01:55:42;;;;;;;17.55;5.45;;;16.60;84.70;;;;;;5092216;28;20022;-75
2021/07/31 01:58:08;;;;;;;13.18;5.13;;;16.60;85.40;;;;;;5091144;28;20020;-76
2021/07/31 02:00:36;;;;;;;11.23;5.20;;;16.60;85.40;;;;;;5092586;28;20513;-75
2021/07/31 02:03:02;;;;;;;15.63;5.47;;;16.60;85.70;;;;;;5092393;28;20032;-76
2021/07/31 02:05:28;;;;;;;14.23;5.00;;;16.50;85.70;;;;;;5091120;28;20024;-77
2021/07/31 02:07:53;;;;;;;19.23;7.68;;;16.50;86.80;;;;;;5090981;28;20039;-78
2021/07/31 02:10:19;;;;;;;11.18;5.13;;;16.40;88.50;;;;;;5091137;28;20020;-77
2021/07/31 02:12:44;;;;;;;12.63;5.35;;;16.30;87.70;;;;;;5093144;28;20029;-77
2021/07/31 02:15:10;;;;;;;12.57;5.05;;;16.30;88.00;;;;;;5094995;28;20032;-77
2021/07/31 02:17:36;;;;;;;12.70;5.00;;;16.20;88.00;;;;;;5095189;28;20099;-79
2021/07/31 02:20:02;;;;;;;14.88;5.43;;;16.20;88.40;;;;;;5094955;28;20424;-77
2021/07/31 02:22:27;;;;;;;12.52;6.30;;;16.20;88.70;;;;;;5096657;28;20531;-77
2021/07/31 02:24:53;;;;;;;16.75;6.70;;;16.20;89.00;;;;;;5094742;28;20020;-78
2021/07/31 02:27:18;;;;;;;15.77;5.57;;;16.20;88.90;;;;;;5096272;28;20016;-78
2021/07/31 02:29:44;;;;;;;18.33;7.03;;;16.20;87.70;;;;;;5096182;28;20020;-77
2021/07/31 02:32:10;;;;;;;16.55;5.93;;;16.20;88.40;;;;;;5094048;28;20048;-77
2021/07/31 02:34:35;;;;;;;13.80;5.53;;;16.20;88.50;;;;;;5094526;28;20054;-78
2021/07/31 02:37:01;;;;;;;16.92;7.60;;;16.20;88.40;;;;;;5094416;28;20050;-77
2021/07/31 02:39:26;;;;;;;12.00;5.57;;;16.10;88.70;;;;;;5094754;28;20021;-77
2021/07/31 02:41:55;;;;;;;15.88;6.63;;;16.10;88.00;;;;;;5094301;28;20144;-75
2021/07/31 02:44:20;;;;;;;20.02;7.75;;;16.10;88.80;;;;;;5094555;28;20499;-78
2021/07/31 02:46:46;;;;;;;13.57;6.25;;;16.10;88.40;;;;;;5094440;28;20063;-77
2021/07/31 02:49:12;;;;;;;17.25;7.75;;;16.10;88.10;;;;;;5093936;28;20354;-77
2021/07/31 02:51:37;;;;;;;14.27;6.43;;;16.10;88.10;;;;;;5095521;28;20085;-77
2021/07/31 02:54:03;;;;;;;14.23;7.43;;;16.10;87.90;;;;;;5094668;28;20177;-77
2021/07/31 02:56:28;;;;;;;16.42;6.65;;;16.20;88.00;;;;;;5095194;28;20024;-78
2021/07/31 02:58:54;;;;;;;12.55;5.13;;;16.20;87.90;;;;;;5098206;28;20468;-76
2021/07/31 03:01:20;;;;;;;9.68;5.38;;;16.20;86.60;;;;;;5098155;28;20040;-77
2021/07/31 03:03:45;;;;;;;15.57;5.88;;;16.20;86.70;;;;;;5099149;28;20035;-77
2021/07/31 03:06:11;;;;;;;14.15;8.00;;;16.20;86.90;;;;;;5109229;28;20032;-77
2021/07/31 03:08:36;;;;;;;14.52;6.30;;;16.30;87.00;;;;;;5106049;28;20428;-76
2021/07/31 03:11:07;;;;;;;19.00;6.97;;;16.30;87.10;;;;;;5093640;28;20473;-77
2021/07/31 03:13:33;;;;;;;15.10;5.82;;;16.30;87.60;;;;;;5093840;28;20038;-78
2021/07/31 03:15:58;;;;;;;13.63;6.20;;;16.30;87.50;;;;;;5093632;28;20021;-78
2021/07/31 03:18:25;;;;;;;14.73;6.60;;;16.20;86.80;;;;;;5093576;28;20024;-78
2021/07/31 03:20:52;;;;;;;16.73;7.22;;;16.20;88.90;;;;;;5094620;28;20035;-77
2021/07/31 03:23:23;;;;;;;11.20;6.80;;;16.20;88.50;;;;;;5093853;28;20020;-76
2021/07/31 03:25:56;;;;;;;21.00;8.52;;;16.10;88.50;;;;;;5093180;28;20012;-78
2021/07/31 03:28:22;;;;;;;17.20;8.25;;;16.10;89.90;;;;;;5093515;28;20043;-76
2021/07/31 03:30:47;;;;;;;12.35;8.48;;;16.00;90.30;;;;;;5093175;28;20472;-78
2021/07/31 03:33:13;;;;;;;14.07;6.72;;;16.00;90.00;;;;;;5093022;28;20395;-77
2021/07/31 03:35:41;;;;;;;20.42;10.50;;;15.90;90.00;;;;;;5097636;28;20024;-77
2021/07/31 03:38:07;;;;;;;21.17;10.90;;;15.90;90.80;;;;;;5104599;28;20015;-75
2021/07/31 03:40:33;;;;;;;14.57;10.23;;;15.90;90.90;;;;;;5113546;28;20042;-75
2021/07/31 03:42:59;;;;;;;20.67;11.75;;;15.80;91.30;;;;;;5098923;28;20028;-75
2021/07/31 03:45:24;;;;;;;19.02;12.93;;;15.80;91.00;;;;;;5095179;28;20020;-77
2021/07/31 03:47:50;;;;;;;18.85;11.27;;;15.70;91.90;;;;;;5094210;28;20032;-76
2021/07/31 03:50:16;;;;;;;21.92;13.27;;;15.70;91.70;;;;;;5092871;28;20035;-78
2021/07/31 03:52:42;;;;;;;20.45;13.65;;;15.60;92.30;;;;;;5093004;28;20028;-79
2021/07/31 03:55:08;;;;;;;18.77;10.57;;;15.60;92.60;;;;;;5093039;28;20020;-78
2021/07/31 03:57:34;;;;;;;22.23;12.57;;;15.60;92.10;;;;;;5094308;28;20107;-79
2021/07/31 04:00:04;;;;;;;20.63;13.00;;;15.50;92.40;;;;;;5092856;28;20024;-78
2021/07/31 04:02:29;;;;;;;18.63;11.35;;;15.50;92.50;;;;;;5093014;28;20227;-78
2021/07/31 04:04:55;;;;;;;21.45;13.02;;;15.60;92.10;;;;;;5092870;28;20036;-79
2021/07/31 04:07:21;;;;;;;19.45;13.15;;;15.60;92.70;;;;;;5093296;28;20012;-78
2021/07/31 04:09:46;;;;;;;22.95;12.02;;;15.50;92.80;;;;;;5092867;28;20456;-79
2021/07/31 04:12:12;;;;;;;21.25;13.23;;;15.50;92.40;;;;;;5109423;28;20403;-77
2021/07/31 04:14:37;;;;;;;18.00;11.80;;;15.60;92.70;;;;;;5109657;28;20020;-77
2021/07/31 04:17:03;;;;;;;16.27;10.55;;;15.60;92.70;;;;;;5092528;28;20089;-77
2021/07/31 04:19:29;;;;;;;21.45;12.35;;;15.50;92.80;;;;;;5092274;28;20388;-78
2021/07/31 04:21:58;;;;;;;17.90;11.70;;;15.60;93.10;;;;;;5093635;28;20020;-78
2021/07/31 04:24:24;;;;;;;18.80;12.43;;;15.60;93.00;;;;;;5092667;28;20412;-78
2021/07/31 04:26:50;;;;;;;19.27;12.25;;;15.60;92.70;;;;;;5092523;28;20077;-78
2021/07/31 04:29:16;;;;;;;14.38;9.65;;;15.60;92.80;;;;;;5092278;28;20489;-77
2021/07/31 04:31:41;;;;;;;21.83;12.27;;;15.60;92.70;;;;;;5092130;28;20062;-77
2021/07/31 04:34:07;;;;;;;16.65;9.70;;;15.60;92.90;;;;;;5092265;28;20027;-77
2021/07/31 04:36:33;;;;;;;19.15;10.60;;;15.60;93.00;;;;;;5092660;28;20030;-77
2021/07/31 04:39:00;;;;;;;18.77;11.23;;;15.60;93.10;;;;;;5093252;28;20383;-77
2021/07/31 04:41:28;;;;;;;17.00;10.77;;;15.60;93.00;;;;;;5093717;28;20032;-76
2021/07/31 04:43:54;;;;;;;13.32;7.53;;;15.60;92.50;;;;;;5092512;28;20429;-78
2021/07/31 04:46:19;;;;;;;14.32;9.90;;;15.60;92.40;;;;;;5093520;28;20058;-79
2021/07/31 04:48:45;;;;;;;12.77;9.00;;;15.60;92.50;;;;;;5092290;28;20525;-78
2021/07/31 04:51:11;;;;;;;13.63;9.18;;;15.60;92.20;;;;;;5091683;28;20035;-76
2021/07/31 04:53:36;;;;;;;17.20;9.10;;;15.70;92.70;;;;;;5092170;28;20024;-78
2021/07/31 04:56:02;;;;;;;15.85;8.40;;;15.60;92.60;;;;;;5092215;28;20143;-78
2021/07/31 04:58:28;;;;;;;14.57;9.35;;;15.60;92.70;;;;;;5091875;28;20024;-77
2021/07/31 05:01:00;;;;;;;14.15;9.10;;;15.70;92.80;;;;;;5093814;28;20031;-77
2021/07/31 05:03:27;;;;;;;13.48;9.18;;;15.60;92.40;;;;;;5092453;28;20135;-78
2021/07/31 05:05:53;;;;;;;15.60;8.30;;;15.60;92.80;;;;;;5092447;28;20028;-78
2021/07/31 05:08:19;;;;;;;12.15;7.97;;;15.60;92.80;;;;;;5094761;28;20020;-77
2021/07/31 05:10:50;;;;;;;14.43;8.32;;;15.60;92.90;;;;;;5104151;28;20028;-77
2021/07/31 05:13:16;;;;;;;12.40;6.75;;;15.60;92.90;;;;;;5095407;28;20016;-78
2021/07/31 05:15:43;;;;;;;15.30;7.85;;;15.70;92.80;;;;;;5091851;28;20305;-77
2021/07/31 05:18:10;;;;;;;12.25;7.95;;;15.70;92.80;;;;;;5091323;28;20032;-77
2021/07/31 05:20:41;;;;;;;15.10;8.48;;;15.70;92.70;;;;;;5092696;28;20074;-78
2021/07/31 05:23:07;;;;;;;16.13;7.35;;;15.70;92.70;;;;;;5091775;28;20380;-77
2021/07/31 05:25:32;;;;;;;13.57;8.20;;;15.70;92.60;;;;;;5101134;28;20024;-78
2021/07/31 05:27:58;;;;;;;13.88;7.03;;;15.70;92.70;;;;;;5105670;28;20024;-77
2021/07/31 05:30:23;;;;;;;11.32;7.25;;;15.70;92.90;;;;;;5102221;28;20031;-76
2021/07/31 05:32:49;;;;;;;11.48;6.80;;;15.80;92.90;;;;;;5094863;28;20038;-77
2021/07/31 05:35:15;;;;;;;13.20;6.30;;;15.80;92.80;;;;;;5091900;28;20047;-77
2021/07/31 05:37:41;;;;;;;10.20;5.70;;;15.80;92.60;;;;;;5094538;28;20035;-78
2021/07/31 05:40:07;;;;;;;9.35;6.25;;;15.80;92.40;;;;;;5098483;28;20016;-78
2021/07/31 05:42:36;;;;;;;11.65;6.28;;;15.80;92.60;;;;;;5092727;28;20025;-77
2021/07/31 05:45:04;;;;;;;11.52;7.00;;;15.80;92.50;;;;;;5091329;28;20309;-77
2021/07/31 05:47:30;;;;;;;12.32;7.57;;;15.90;92.00;;;;;;5093812;28;20027;-77
2021/07/31 05:49:57;;;;;;;10.75;6.78;;;15.80;92.40;;;;;;5095353;28;20024;-77
2021/07/31 05:52:28;;;;;;;8.65;6.47;;;15.80;92.40;;;;;;5094457;28;20032;-78
2021/07/31 05:54:56;;;;;;;10.10;6.38;;;15.80;92.20;;;;;;5095451;28;20113;-77
2021/07/31 05:57:22;;;;;;;11.00;6.38;;;15.90;92.00;;;;;;5095036;28;20027;-77
2021/07/31 05:59:48;;;;;;;16.75;8.18;;;15.80;92.00;;;;;;5095270;28;20024;-77
2021/07/31 06:02:14;;;;;;;15.43;8.77;;;15.90;92.30;;;;;;5095999;28;20060;-77
2021/07/31 06:04:40;;;;;;;14.55;9.63;;;15.90;92.00;;;;;;5095120;28;20032;-77
2021/07/31 06:07:07;;;;;;;12.70;8.57;;;15.90;92.40;;;;;;5094743;28;20027;-77
2021/07/31 06:09:34;;;;;;;16.13;8.93;;;15.90;92.10;;;;;;5096777;28;20020;-77
2021/07/31 06:12:00;;;;;;;11.45;7.70;;;15.90;92.10;;;;;;5095083;28;20031;-78
2021/07/31 06:14:26;;;;;;;14.90;8.63;;;16.00;92.10;;;;;;5094735;28;20017;-77
2021/07/31 06:16:52;;;;;;;14.30;8.05;;;16.00;91.90;;;;;;5096054;28;20095;-78
2021/07/31 06:19:17;;;;;;;12.55;7.82;;;16.00;92.00;;;;;;5094910;28;20020;-78
2021/07/31 06:21:43;;;;;;;13.30;7.75;;;16.00;91.80;;;;;;5095012;28;20020;-78
2021/07/31 06:24:09;;;;;;;18.23;8.25;;;16.10;92.00;;;;;;5095874;28;20028;-78
2021/07/31 06:26:35;;;;;;;13.77;8.63;;;16.10;92.20;;;;;;5094849;28;20372;-78
2021/07/31 06:29:01;;;;;;;13.30;7.82;;;16.10;92.20;;;;;;5095894;28;20464;-77
2021/07/31 06:31:27;;;;;;;12.35;7.90;;;16.10;92.30;;;;;;5095674;28;20085;-77
2021/07/31 06:33:52;;;;;;;16.20;7.78;;;16.10;92.30;;;;;;5094835;28;20042;-76
2021/07/31 06:36:21;;;;;;;10.07;6.30;;;16.10;91.70;;;;;;5094467;28;20046;-77
2021/07/31 06:38:49;;;;;;;14.82;7.85;;;16.10;91.70;;;;;;5094648;28;20016;-77
2021/07/31 06:41:15;;;;;;;15.32;8.32;;;16.10;91.50;;;;;;5094383;28;20032;-77
2021/07/31 06:43:41;;;;;;;15.55;7.20;;;16.10;91.80;;;;;;5095953;28;20027;-79
2021/07/31 06:46:14;;;;;;;11.73;7.80;;;16.10;92.00;;;;;;5094617;28;20028;-77
2021/07/31 06:48:40;;;;;;;12.10;8.48;;;16.10;92.00;;;;;;5094513;28;20111;-75
2021/07/31 06:51:06;;;;;;;12.10;8.07;;;16.20;92.20;;;;;;5095134;28;20063;-76
2021/07/31 06:53:32;;;;;;;12.80;7.88;;;16.20;92.40;;;;;;5094413;28;20073;-77
2021/07/31 06:55:59;;;;;;;13.18;6.53;;;16.20;92.00;;;;;;5095679;28;20020;-77
2021/07/31 06:58:25;;;;;;;19.30;8.60;;;16.20;91.90;;;;;;5093460;28;20032;-76
2021/07/31 07:00:51;;;;;;;11.90;6.38;;;16.20;91.90;;;;;;5093961;28;20445;-76
2021/07/31 07:03:16;;;;;;;13.30;6.85;;;16.30;90.90;;;;;;5094294;28;20026;-76
2021/07/31 07:05:42;;;;;;;14.50;6.47;;;16.30;91.50;;;;;;5094434;28;20068;-76
2021/07/31 07:08:08;;;;;;;11.30;6.32;;;16.30;91.50;;;;;;5100584;28;20453;-77
2021/07/31 07:10:33;;;;;;;12.13;5.88;;;16.30;91.50;;;;;;5113330;28;20088;-77
2021/07/31 07:12:59;;;;;;;9.98;4.72;;;16.30;91.20;;;;;;5116368;28;20184;-76
2021/07/31 07:15:27;;;;;;;13.93;6.32;;;16.30;90.90;;;;;;5123284;28;20581;-75
2021/07/31 07:17:54;;;;;;;12.80;6.20;;;16.30;91.20;;;;;;5124215;28;20083;-77
2021/07/31 07:20:20;;;;;;;10.93;7.13;;;16.30;91.20;;;;;;5114724;28;20135;-77
2021/07/31 07:22:45;;;;;;;11.57;6.85;;;16.40;91.10;;;;;;5113116;28;20102;-76
2021/07/31 07:25:11;;;;;;;11.93;6.72;;;16.40;91.30;;;;;;5113911;28;20031;-77
2021/07/31 07:27:36;;;;;;;13.55;7.22;;;16.40;91.50;;;;;;5114019;28;20020;-77
2021/07/31 07:30:02;;;;;;;13.25;7.57;;;16.40;91.40;;;;;;5114096;28;20020;-76
2021/07/31 07:32:28;;;;;;;12.27;7.05;;;16.50;91.40;;;;;;5113375;28;20043;-77
2021/07/31 07:34:54;;;;;;;10.52;6.65;;;16.50;91.40;;;;;;5114044;28;20023;-76
2021/07/31 07:37:19;;;;;;;9.77;6.03;;;16.50;91.30;;;;;;5113787;28;20509;-75
2021/07/31 07:39:45;;;;;;;18.13;8.18;;;16.40;91.40;;;;;;5113490;28;20023;-77
2021/07/31 07:42:10;;;;;;;14.85;8.00;;;16.50;91.70;;;;;;5113418;28;20035;-77
2021/07/31 07:44:36;;;;;;;12.90;7.32;;;16.50;91.60;;;;;;5113452;28;20329;-77
2021/07/31 07:47:02;;;;;;;13.15;8.20;;;16.50;91.50;;;;;;5113712;28;20072;-77
2021/07/31 07:49:27;;;;;;;13.88;8.52;;;16.50;91.70;;;;;;5113612;28;20474;-78
2021/07/31 07:51:53;;;;;;;10.48;8.55;;;16.50;91.90;;;;;;5113582;28;20495;-77
2021/07/31 07:54:18;;;;;;;16.02;10.48;;;16.50;92.10;;;;;;5113248;28;20110;-77
2021/07/31 07:56:44;;;;;;;13.75;9.40;;;16.50;92.30;;;;;;5114949;28;20452;-77
2021/07/31 07:59:09;;;;;;;20.67;10.07;;;16.40;92.00;;;;;;5113627;28;20036;-78
2021/07/31 08:01:36;;;;;;;14.45;11.05;;;16.50;92.30;;;;;;5113525;28;20031;-77
2021/07/31 08:04:01;;;;;;;18.58;11.65;;;16.50;92.50;;;;;;5113628;28;20047;-79
2021/07/31 08:06:27;;;;;;;14.00;9.80;;;16.60;92.30;;;;;;5113148;28;20197;-79
2021/07/31 08:08:53;;;;;;;12.07;8.65;;;16.60;92.10;;;;;;5096791;28;20028;-77
2021/07/31 08:11:19;;;;;;;16.25;10.02;;;16.80;91.50;;;;;;5112129;28;20028;-78
2021/07/31 08:13:47;;;;;;;15.60;11.52;;;16.80;91.10;;;;;;5112897;28;20023;-77
2021/07/31 08:16:13;;;;;;;13.48;9.73;;;16.80;91.60;;;;;;5113889;28;20030;-77
2021/07/31 08:18:38;;;;;;;14.05;11.55;;;16.70;91.40;;;;;;5115472;28;20462;-77
2021/07/31 08:21:04;;;;;;;15.15;8.57;;;16.70;91.80;;;;;;5116213;28;20031;-77
2021/07/31 08:23:30;;;;;;;13.85;10.23;;;16.70;91.40;;;;;;5115296;28;20066;-78
2021/07/31 08:25:55;;;;;;;14.38;10.60;;;16.80;91.50;;;;;;5112879;28;20038;-80
2021/07/31 08:28:21;;;;;;;14.40;10.48;;;16.90;91.60;;;;;;5112948;28;20016;-80
2021/07/31 08:30:47;;;;;;;12.38;9.38;;;17.00;90.90;;;;;;5113317;28;20519;-80
2021/07/31 08:33:12;;;;;;;12.57;11.18;;;17.20;90.70;;;;;;5112842;28;20043;-79
2021/07/31 08:35:38;;;;;;;15.65;10.10;;;17.30;90.50;;;;;;5112992;28;20474;-80
2021/07/31 08:38:03;;;;;;;13.70;10.05;;;17.30;90.20;;;;;;5113210;28;20034;-78
2021/07/31 08:40:29;;;;;;;10.70;8.98;;;17.30;90.40;;;;;;5112598;28;20118;-79
2021/07/31 08:42:55;;;;;;;14.05;9.50;;;17.20;90.10;;;;;;5112128;28;20035;-80
2021/07/31 08:45:21;;;;;;;13.35;8.43;;;17.20;90.20;;;;;;5111686;28;20020;-77
2021/07/31 08:47:49;;;;;;;13.65;9.32;;;17.10;89.20;;;;;;5112493;28;20477;-77
2021/07/31 08:50:17;;;;;;;14.75;9.60;;;17.10;89.70;;;;;;5112242;28;20031;-77
2021/07/31 08:52:47;;;;;;;18.23;11.35;;;17.10;90.40;;;;;;5112369;28;20031;-81
2021/07/31 08:55:13;;;;;;;13.88;9.85;;;17.10;90.50;;;;;;5099496;28;20376;-77
2021/07/31 08:57:39;;;;;;;14.65;9.55;;;17.10;90.70;;;;;;5091461;28;20219;-84
2021/07/31 09:00:06;;;;;;;15.82;9.27;;;17.00;90.60;;;;;;5089745;28;20043;-79
2021/07/31 09:02:43;;;;;;;18.70;9.57;;;17.00;90.80;;;;;;5104454;28;20035;-77
2021/07/31 09:05:11;;;;;;;15.50;8.30;;;17.00;90.90;;;;;;5124709;28;20028;-77
2021/07/31 09:07:37;;;;;;;13.82;8.88;;;16.90;90.80;;;;;;5126321;28;20065;-78
2021/07/31 09:10:22;;;;;;;11.80;8.18;;;16.90;91.10;;;;;;5119832;28;20356;-79
2021/07/31 09:12:55;;;;;;;9.73;6.75;;;16.80;91.10;;;;;;5112709;28;20110;-78
2021/07/31 09:15:28;;;;;;;13.68;7.75;;;16.80;90.80;;;;;;5112935;28;20024;-79
2021/07/31 09:17:54;;;;;;;10.68;7.97;;;16.80;91.60;;;;;;5122173;28;20031;-79
2021/07/31 09:20:19;;;;;;;11.65;8.73;;;16.70;91.60;;;;;;5123050;28;20028;-80
2021/07/31 09:22:52;;;;;;;12.82;9.20;;;16.70;91.80;;;;;;5112238;28;20107;-78
2021/07/31 09:25:18;;;;;;;17.65;9.63;;;16.70;92.40;;;;;;5111904;28;20016;-80
2021/07/31 09:27:43;;;;;;;17.25;10.38;;;16.70;91.60;;;;;;5111606;28;20165;-80
2021/07/31 09:30:09;;;;;;;15.25;9.68;;;16.70;91.80;;;;;;5111765;28;20028;-79
2021/07/31 09:32:41;;;;;;;13.48;10.20;;;16.60;92.20;;;;;;5111265;28;20056;-79
2021/07/31 09:35:25;;;;;;;18.50;10.35;;;16.60;92.40;;;;;;5111948;28;20035;-77
2021/07/31 09:37:53;;;;;;;14.00;9.57;;;16.60;92.50;;;;;;5113254;28;20498;-77
2021/07/31 09:40:30;;;;;;;12.00;8.82;;;16.60;92.60;;;;;;5111723;28;20016;-80
2021/07/31 09:43:10;;;;;;;12.38;8.52;;;16.60;92.10;;;;;;5111794;28;20035;-79
2021/07/31 09:45:36;;;;;;;11.95;8.32;;;16.70;92.70;;;;;;5111807;28;20436;-79
2021/07/31 09:48:02;;;;;;;12.50;8.05;;;16.80;92.60;;;;;;5113016;28;20031;-80
2021/07/31 09:50:46;;;;;;;12.95;7.93;;;17.00;92.90;;;;;;5112366;28;20037;-80
2021/07/31 09:56:51;;;;;;;12.57;6.55;;;17.20;91.90;;;;;;5109192;28;20101;-80
2021/07/31 09:59:25;;;;;;;11.55;6.95;;;17.30;91.80;;;;;;5113587;28;20039;-80
2021/07/31 10:01:59;;;;;;;8.52;5.47;;;17.60;91.50;;;;;;5113009;28;20372;-78
2021/07/31 10:04:26;;;;;;;12.48;6.88;;;18.00;90.50;;;;;;5112622;28;20043;-79
2021/07/31 10:06:52;;;;;;;9.75;7.10;;;18.20;90.80;;;;;;5113097;28;20024;-79
2021/07/31 10:09:18;;;;;;;9.60;7.82;;;18.10;90.50;;;;;;5111798;28;20103;-80
2021/07/31 10:11:44;;;;;;;9.95;7.10;;;18.10;91.30;;;;;;5111736;28;20119;-79
2021/07/31 10:14:11;;;;;;;9.57;7.13;;;18.10;90.50;;;;;;5113281;28;20130;-79
2021/07/31 10:16:39;;;;;;;10.32;8.27;;;18.20;91.10;;;;;;5111730;28;20028;-79
2021/07/31 10:19:08;;;;;;;9.48;7.07;;;18.30;90.90;;;;;;5111727;28;20020;-79
2021/07/31 10:21:45;;;;;;;9.98;6.10;;;18.50;90.60;;;;;;5113748;28;20463;-79
2021/07/31 10:24:11;;;;;;;9.15;7.18;;;18.60;89.90;;;;;;5113794;28;20065;-78
2021/07/31 10:26:37;;;;;;;12.15;8.43;;;18.50;90.30;;;;;;5111280;28;20032;-78
2021/07/31 10:29:25;;;;;;;12.30;8.18;;;18.40;90.40;;;;;;5111419;28;20027;-79
2021/07/31 10:31:51;;;;;;;11.18;6.15;;;18.20;90.80;;;;;;5111170;28;20055;-78
2021/07/31 10:34:45;;;;;;;10.82;6.82;;;18.00;89.60;;;;;;5112293;28;20076;-78
2021/07/31 10:37:39;;;;;;;15.43;9.77;;;17.90;90.50;;;;;;5115266;28;20034;-79
2021/07/31 10:40:34;;;;;;;10.88;6.63;;;17.70;91.20;;;;;;5113508;28;20024;-79
2021/07/31 10:42:59;;;;;;;9.60;8.18;;;17.50;91.60;;;;;;5099914;28;20047;-78
2021/07/31 10:45:30;;;;;;;14.43;8.50;;;17.30;92.10;;;;;;5115093;28;20024;-78
2021/07/31 10:47:57;;;;;;;5.85;4.15;;;17.20;91.90;;;;;;5115290;28;20059;-78
2021/07/31 10:50:23;;;;;;;7.03;3.92;;;17.10;92.00;;;;;;5117070;28;20024;-78
2021/07/31 10:52:57;;;;;;;8.57;6.13;;;17.20;92.10;;;;;;5125885;28;20032;-78
2021/07/31 10:55:36;;;;;;;8.48;5.38;;;17.20;91.50;;;;;;5135222;28;20064;-79
2021/07/31 10:58:01;;;;;;;9.32;6.32;;;17.40;91.80;;;;;;5130047;28;20030;-78
2021/07/31 11:00:27;;;;;;;8.38;5.47;;;17.60;92.20;;;;;;5123151;28;20028;-79
2021/07/31 11:02:53;;;;;;;6.28;3.28;;;17.80;91.60;;;;;;5119575;28;20077;-79
2021/07/31 11:05:20;;;;;;;10.32;4.18;;;17.80;90.40;;;;;;5115971;28;20047;-79
2021/07/31 11:07:57;;;;;;;9.45;3.70;;;17.80;90.70;;;;;;5115252;28;20024;-80
2021/07/31 11:10:42;;;;;;;7.07;4.20;;;17.70;91.00;;;;;;5114384;28;20020;-79
2021/07/31 11:13:09;;;;;;;7.78;3.17;;;17.60;91.00;;;;;;5114733;28;20028;-78
2021/07/31 11:15:34;;;;;;;7.32;3.17;;;17.50;91.00;;;;;;5114516;28;20020;-79
2021/07/31 11:18:02;;;;;;;7.22;3.55;;;17.50;91.10;;;;;;5115476;28;20030;-77
2021/07/31 11:20:31;;;;;;;7.53;2.85;;;17.50;91.50;;;;;;5123203;28;20054;-78
2021/07/31 11:23:02;;;;;;;6.40;3.17;;;17.50;91.10;;;;;;5127879;28;20122;-78
2021/07/31 11:25:28;;;;;;;7.28;3.80;;;17.50;91.30;;;;;;5114537;28;20019;-78
2021/07/31 11:28:01;;;;;;;6.75;3.20;;;17.50;91.40;;;;;;5115600;28;20422;-77
2021/07/31 11:30:39;;;;;;;5.05;2.55;;;17.50;91.50;;;;;;5113830;28;20451;-79
2021/07/31 11:33:23;;;;;;;6.97;3.92;;;17.40;91.20;;;;;;5115790;28;20478;-78
2021/07/31 11:35:51;;;;;;;8.07;3.65;;;17.40;91.80;;;;;;5114081;28;20051;-79
2021/07/31 11:38:35;;;;;;;9.52;3.85;;;17.40;91.50;;;;;;5114045;28;20024;-78
2021/07/31 11:41:06;;;;;;;7.80;3.22;;;17.40;91.30;;;;;;5113875;28;20031;-77
2021/07/31 11:43:52;;;;;;;7.18;3.45;;;17.40;91.40;;;;;;5113803;28;20055;-78
2021/07/31 11:46:32;;;;;;;7.40;3.97;;;17.60;91.80;;;;;;5113814;28;20093;-78
2021/07/31 11:49:01;;;;;;;7.82;4.40;;;17.80;91.60;;;;;;5113984;28;20433;-77
2021/07/31 11:51:27;;;;;;;8.63;5.85;;;18.20;91.20;;;;;;5113452;28;20039;-77
2021/07/31 11:53:53;;;;;;;8.13;4.80;;;18.30;90.90;;;;;;5113660;28;20036;-77
2021/07/31 11:56:23;;;;;;;9.10;4.75;;;18.50;90.30;;;;;;5113677;28;20023;-78
2021/07/31 11:58:54;;;;;;;9.50;4.40;;;18.60;90.60;;;;;;5113563;28;20020;-78
2021/07/31 12:01:20;;;;;;;10.07;4.50;;;18.90;90.50;;;;;;5113572;28;20380;-77
2021/07/31 12:03:51;;;;;;;10.45;4.80;;;19.30;89.70;;;;;;5113336;28;20016;-77
2021/07/31 12:06:39;;;;;;;7.00;4.63;;;19.80;89.50;;;;;;5115039;28;20020;-78
2021/07/31 12:09:20;;;;;;;6.35;3.80;;;20.30;87.10;;;;;;5113378;28;20023;-78
2021/07/31 12:11:47;;;;;;;7.00;4.03;;;20.60;83.70;;;;;;5113194;28;20032;-78
2021/07/31 12:14:39;;;;;;;8.27;4.28;;;20.60;83.20;;;;;;5113356;28;20077;-77
2021/07/31 12:17:23;;;;;;;15.82;5.72;;;20.70;83.30;;;;;;5113323;28;20483;-78
2021/07/31 12:19:59;;;;;;;6.75;4.53;;;21.00;81.20;;;;;;5115048;28;20069;-78
2021/07/31 12:22:29;;;;;;;7.22;3.67;;;21.00;79.40;;;;;;5114183;28;20541;-78
2021/07/31 12:25:16;;;;;;;8.23;4.40;;;20.80;79.60;;;;;;5113027;28;20012;-77
2021/07/31 12:27:56;;;;;;;8.35;4.40;;;20.70;81.30;;;;;;5114177;28;20034;-78
2021/07/31 12:30:28;;;;;;;8.40;3.35;;;20.80;80.10;;;;;;5113114;28;20126;-78
2021/07/31 12:33:06;;;;;;;6.22;3.22;;;20.90;79.80;;;;;;5112550;28;20071;-77
2021/07/31 12:35:57;;;;;;;7.13;4.72;;;20.90;79.00;;;;;;5112914;28;20034;-80
2021/07/31 12:38:28;;;;;;;8.10;3.92;;;20.70;79.50;;;;;;5113078;28;20110;-78
2021/07/31 12:40:56;;;;;;;9.30;5.32;;;20.50;80.70;;;;;;5118900;28;20088;-81
2021/07/31 12:43:24;;;;;;;8.63;5.22;;;20.30;82.20;;;;;;5132712;28;20031;-79
2021/07/31 12:45:52;;;;;;;8.88;4.50;;;20.10;83.10;;;;;;5130640;28;20028;-80